KMER/MER METAR and TAF weather

Enter ICAO airport designator
Station Type Date Time Source
KMER METAR 2019/07/15 19:45 UTC NOAA

KMER 151945Z 32009KT 10SM SKC 36/10 A2995


Station Type Date Time Source
KMER Decoded METAR 2019/07/15 19:45 UTC NOAA

Merced / Castle Air Force Base, CA, United States (KMER) 37-22N 120-34W 60M
Jul 15, 2019 - 03:45 PM EDT / 2019.07.15 1945 UTC
Wind: from the NW (320 degrees) at 10 MPH (9 KT):0
Visibility: 10 mile(s):0
Sky conditions: clear
Temperature: 96 F (36 C)
Dew Point: 50 F (10 C)
Relative Humidity: 20%
Pressure (altimeter): 29.95 in. Hg (1014 hPa)
ob: KMER 151945Z 32009KT 10SM SKC 36/10 A2995
cycle: 20

Station Type Date Time Source
KMER TAF 2019/07/15 18:24 UTC NOAA

TAF KMER 151720Z 1518/1618 34006KT P6SM SKC

Example: see airport list